Time;durP1;ratioP1;P1;durP2;ratioP2;P2;SDS_P1;SDS_P2;PMS_P1;PMS_P2;Temp;Humidity;BMP_temperature;BMP_pressure;BME280_temperature;BME280_humidity;BME280_pressure;Samples;Min_cycle;Max_cycle;Signal;HPM_P1;HPM_P2
2021/10/07 00:01:11;;;;;;;5.40;2.40;;;;;;;13.13;89.31;96975.22;5032855;28;20205;-72
2021/10/07 00:03:37;;;;;;;3.90;2.60;;;;;;;13.18;89.09;96970.22;5018620;28;20237;-72
2021/10/07 00:06:04;;;;;;;7.13;2.40;;;;;;;13.12;89.02;96965.63;5020182;28;20202;-72
2021/10/07 00:08:30;;;;;;;3.80;2.33;;;;;;;13.19;88.62;96962.09;5019754;28;20575;-72
2021/10/07 00:10:57;;;;;;;5.63;2.37;;;;;;;13.10;89.49;96965.00;5022565;28;20206;-72
2021/10/07 00:13:25;;;;;;;3.13;1.97;;;;;;;13.31;89.26;96965.16;5021252;28;20251;-72
2021/10/07 00:15:51;;;;;;;5.47;2.30;;;;;;;13.16;89.03;96974.84;5019286;28;20257;-72
2021/10/07 00:18:18;;;;;;;3.37;2.00;;;;;;;12.84;87.48;96977.66;5022568;28;20205;-72
2021/10/07 00:20:44;;;;;;;5.03;2.20;;;;;;;12.78;88.36;96978.34;5032909;28;20205;-72
2021/10/07 00:23:11;;;;;;;4.67;2.10;;;;;;;12.37;89.13;96968.94;5027001;28;20731;-72
2021/10/07 00:25:37;;;;;;;3.83;1.97;;;;;;;12.50;88.69;96973.66;5022155;28;20280;-72
2021/10/07 00:28:08;;;;;;;3.63;2.00;;;;;;;12.50;88.73;96974.50;5026312;28;20698;-72
2021/10/07 00:30:38;;;;;;;3.47;1.87;;;;;;;12.77;87.68;96982.00;5031528;28;20213;-72
2021/10/07 00:33:14;;;;;;;4.60;2.10;;;;;;;12.57;87.10;96975.44;5019299;28;20257;-72
2021/10/07 00:35:48;;;;;;;6.03;2.27;;;;;;;12.77;86.73;96976.69;5027794;28;20228;-72
2021/10/07 00:40:59;;;;;;;3.27;1.87;;;;;;;12.55;86.68;96977.47;5021387;28;20232;-72
2021/10/07 00:43:26;;;;;;;3.50;1.70;;;;;;;12.55;86.75;96985.41;5019380;28;20324;-72
2021/10/07 00:45:56;;;;;;;2.90;1.67;;;;;;;12.90;86.10;96990.22;5021773;28;20208;-72
2021/10/07 00:48:23;;;;;;;3.50;1.87;;;;;;;12.86;86.34;96986.28;5023211;28;20905;-72
2021/10/07 00:50:50;;;;;;;4.90;1.97;;;;;;;12.94;86.22;96987.03;5021732;28;20673;-72
2021/10/07 00:53:18;;;;;;;2.43;1.90;;;;;;;13.01;85.82;96987.19;5022223;28;20225;-72
2021/10/07 00:55:46;;;;;;;3.67;1.63;;;;;;;12.88;86.97;96985.09;5017160;28;20706;-72
2021/10/07 00:58:15;;;;;;;3.17;1.83;;;;;;;12.97;86.25;96983.22;5025473;28;20220;-72
2021/10/07 01:00:42;;;;;;;2.70;1.70;;;;;;;12.96;86.05;96977.13;5024941;28;20205;-72
2021/10/07 01:03:10;;;;;;;5.80;2.13;;;;;;;12.95;86.63;96975.47;5021313;28;20232;-72
2021/10/07 01:05:37;;;;;;;4.57;1.70;;;;;;;12.69;87.44;96982.03;5023488;28;20202;-72
2021/10/07 01:08:04;;;;;;;4.93;1.90;;;;;;;12.72;86.54;96976.38;5029806;28;20209;-72
2021/10/07 01:10:30;;;;;;;3.97;1.80;;;;;;;12.51;87.00;96976.16;5022132;28;20197;-72
2021/10/07 01:12:57;;;;;;;3.27;1.87;;;;;;;12.57;86.92;96979.94;5017532;28;20202;-72
2021/10/07 01:15:23;;;;;;;4.73;1.70;;;;;;;12.41;87.56;96975.53;5027423;28;20225;-72
2021/10/07 01:17:50;;;;;;;4.37;1.70;;;;;;;12.43;87.73;96978.00;5021003;28;20818;-72
2021/10/07 01:20:18;;;;;;;3.57;1.80;;;;;;;12.57;87.60;96979.94;5018140;28;20210;-72
2021/10/07 01:22:44;;;;;;;4.97;2.20;;;;;;;12.62;87.26;96977.59;5027997;28;20215;-72
2021/10/07 01:25:11;;;;;;;4.40;1.80;;;;;;;12.70;87.24;96985.50;5022887;28;20677;-72
2021/10/07 01:27:38;;;;;;;5.37;1.90;;;;;;;12.73;87.57;96980.69;5017005;28;20685;-72
2021/10/07 01:30:07;;;;;;;2.50;1.77;;;;;;;12.94;87.38;96979.09;5021485;28;20294;-72
2021/10/07 01:32:34;;;;;;;3.53;1.80;;;;;;;12.79;87.88;96983.47;5018195;28;20274;-72
2021/10/07 01:35:01;;;;;;;3.57;1.93;;;;;;;12.85;87.61;96974.84;5028086;28;20257;-72
2021/10/07 01:37:29;;;;;;;5.37;2.07;;;;;;;12.98;89.19;96985.72;5022827;28;20213;-72
2021/10/07 01:39:55;;;;;;;6.23;2.03;;;;;;;12.88;88.40;96985.09;5017658;28;20217;-72
2021/10/07 01:42:22;;;;;;;5.60;2.03;;;;;;;12.69;87.19;96984.69;5025867;28;20205;-72
2021/10/07 01:44:48;;;;;;;5.07;1.80;;;;;;;12.48;87.65;96979.13;5024120;28;20225;-72
2021/10/07 01:47:15;;;;;;;2.00;1.50;;;;;;;12.60;87.86;96988.34;5023132;28;20202;-72
2021/10/07 01:49:41;;;;;;;3.00;1.80;;;;;;;12.57;88.79;96979.94;5024545;28;20202;-72
2021/10/07 01:52:08;;;;;;;9.30;2.00;;;;;;;12.80;88.41;96985.13;5028450;28;21283;-72
2021/10/07 01:54:36;;;;;;;2.43;1.60;;;;;;;12.96;89.43;96986.91;5023983;28;20229;-72
2021/10/07 01:57:02;;;;;;;3.20;2.00;;;;;;;12.64;87.70;96987.00;5018190;28;20213;-72
2021/10/07 01:59:29;;;;;;;4.83;2.00;;;;;;;12.60;89.93;96988.34;5020731;28;20209;-72
2021/10/07 02:01:55;;;;;;;3.70;1.90;;;;;;;12.67;88.35;96980.56;5026566;28;20200;-72
2021/10/07 02:04:22;;;;;;;4.93;1.90;;;;;;;12.69;88.85;96976.75;5020098;28;20768;-72
2021/10/07 02:06:48;;;;;;;5.00;3.70;;;;;;;12.62;88.88;96980.25;5032505;28;20206;-72
2021/10/07 02:09:15;;;;;;;4.60;2.00;;;;;;;12.57;88.45;96970.16;5025500;28;20212;-72
2021/10/07 02:11:42;;;;;;;6.87;2.00;;;;;;;12.67;88.01;96969.97;5025089;28;20206;-72
2021/10/07 02:14:09;;;;;;;3.93;2.03;;;;;;;12.56;88.13;96963.22;5025796;28;20225;-72
2021/10/07 02:16:35;;;;;;;4.97;2.33;;;;;;;12.51;88.57;96967.38;5021160;28;20226;-72
2021/10/07 02:19:02;;;;;;;2.53;1.80;;;;;;;12.51;88.07;96973.50;5025992;28;20205;-72
2021/10/07 02:21:29;;;;;;;4.93;1.97;;;;;;;12.71;88.61;96972.09;5029831;28;20206;-72
2021/10/07 02:23:56;;;;;;;4.47;1.90;;;;;;;12.67;89.10;96981.38;5019399;28;20237;-72
2021/10/07 02:26:22;;;;;;;3.53;2.10;;;;;;;12.75;89.12;96991.09;5025035;28;20212;-72
2021/10/07 02:28:50;;;;;;;5.33;2.00;;;;;;;12.89;88.95;96985.91;5036208;28;20206;-72
2021/10/07 02:31:17;;;;;;;3.63;2.07;;;;;;;12.63;88.83;96989.84;5029219;28;20232;-72
2021/10/07 02:33:44;;;;;;;4.87;2.50;;;;;;;12.40;90.37;96984.44;5025141;28;20233;-72
2021/10/07 02:36:11;;;;;;;5.03;2.10;;;;;;;12.52;89.61;96977.78;5025212;28;20237;-72
2021/10/07 02:38:37;;;;;;;7.00;2.47;;;;;;;12.60;89.54;96974.28;5024624;28;20210;-72
2021/10/07 02:41:04;;;;;;;3.93;2.40;;;;;;;12.67;89.19;96975.25;5023881;28;20229;-72
2021/10/07 02:43:30;;;;;;;2.70;2.00;;;;;;;12.61;89.89;96975.94;5021515;28;20222;-72
2021/10/07 02:45:58;;;;;;;5.53;2.30;;;;;;;12.77;89.18;96987.28;5026894;28;20206;-72
2021/10/07 02:48:25;;;;;;;4.30;2.00;;;;;;;12.62;89.45;96977.59;5021392;28;20537;-72
2021/10/07 02:50:51;;;;;;;2.47;1.90;;;;;;;12.65;89.27;96982.53;5033030;28;20206;-72
2021/10/07 02:53:18;;;;;;;4.40;2.03;;;;;;;12.64;89.31;96988.81;5030471;28;20251;-72
2021/10/07 02:55:44;;;;;;;5.37;2.50;;;;;;;12.69;89.46;96981.19;5029280;28;20232;-72
2021/10/07 02:58:11;;;;;;;6.53;2.10;;;;;;;12.72;89.57;96988.81;5024132;28;20208;-72
2021/10/07 03:00:37;;;;;;;4.23;2.30;;;;;;;12.73;89.44;96985.13;5025606;28;20205;-72
2021/10/07 03:03:05;;;;;;;3.10;2.30;;;;;;;12.89;90.10;96985.91;5028016;28;20229;-72
2021/10/07 03:05:34;;;;;;;4.83;2.30;;;;;;;12.72;90.34;96988.81;5027486;28;20197;-72
2021/10/07 03:08:01;;;;;;;6.70;2.37;;;;;;;12.45;90.38;96987.41;5025239;28;20706;-72
2021/10/07 03:10:27;;;;;;;6.50;2.63;;;;;;;12.52;90.33;96980.44;5033012;28;20202;-72
2021/10/07 03:12:53;;;;;;;7.67;2.37;;;;;;;12.50;90.03;96987.72;5023018;28;20209;-72
2021/10/07 03:15:20;;;;;;;7.40;2.47;;;;;;;12.67;89.87;96996.41;5021348;28;20226;-72
2021/10/07 03:17:46;;;;;;;3.87;2.40;;;;;;;12.56;90.77;96996.78;5027297;28;20895;-72
2021/10/07 03:20:14;;;;;;;4.87;2.60;;;;;;;12.71;90.87;97003.00;5029073;28;20678;-72
2021/10/07 03:22:41;;;;;;;7.67;3.40;;;;;;;12.66;90.22;97003.50;5023620;28;20221;-72
2021/10/07 03:25:09;;;;;;;4.80;3.23;;;;;;;12.77;90.72;96998.66;5022877;28;21049;-72
2021/10/07 03:27:35;;;;;;;5.23;3.30;;;;;;;12.63;90.98;96995.13;5020612;28;20209;-72
2021/10/07 03:30:02;;;;;;;9.70;4.20;;;;;;;12.71;90.84;96995.06;5023943;28;20206;-72
2021/10/07 03:32:28;;;;;;;11.47;4.87;;;;;;;12.70;91.00;97002.16;5027311;28;20197;-72
2021/10/07 03:34:55;;;;;;;10.57;4.67;;;;;;;12.71;91.15;97003.81;5024546;28;20232;-72
2021/10/07 03:37:23;;;;;;;6.20;3.70;;;;;;;12.82;91.24;97001.63;5019448;28;20217;-72
2021/10/07 03:39:49;;;;;;;10.17;3.70;;;;;;;12.47;92.00;97006.53;5029188;28;20565;-72
2021/10/07 03:42:16;;;;;;;9.30;3.57;;;;;;;12.54;91.27;97004.88;5024305;28;20925;-72
2021/10/07 03:44:42;;;;;;;5.97;3.23;;;;;;;12.60;91.68;97017.44;5021924;28;20237;-72
2021/10/07 03:47:09;;;;;;;9.50;3.80;;;;;;;12.12;92.72;97022.00;5023908;28;20912;-72
2021/10/07 03:49:35;;;;;;;4.93;3.17;;;;;;;12.03;93.02;97027.44;5031336;28;20888;-72
2021/10/07 03:52:02;;;;;;;8.80;3.77;;;;;;;12.27;92.26;97029.06;5030097;28;20969;-72
2021/10/07 03:54:30;;;;;;;6.27;3.53;;;;;;;12.69;91.65;97034.91;5024338;28;20228;-72
2021/10/07 03:56:56;;;;;;;8.60;4.20;;;;;;;12.48;92.17;97039.94;5022379;28;20236;-72
2021/10/07 03:59:23;;;;;;;6.63;3.50;;;;;;;12.53;92.17;97045.53;5028962;28;20208;-72
2021/10/07 04:01:49;;;;;;;6.50;4.80;;;;;;;12.44;92.95;97041.25;5028451;28;20205;-72
2021/10/07 04:04:15;;;;;;;7.70;3.73;;;;;;;12.58;92.62;97048.50;5021144;28;20225;-72
2021/10/07 04:06:42;;;;;;;9.83;3.97;;;;;;;12.68;91.71;97046.50;5022909;28;20209;-72
2021/10/07 04:09:08;;;;;;;6.47;3.83;;;;;;;12.62;92.06;97044.50;5032905;28;20209;-72
2021/10/07 04:11:36;;;;;;;8.80;4.10;;;;;;;12.82;91.88;97043.94;5030381;28;20209;-72
2021/10/07 04:14:03;;;;;;;7.83;3.63;;;;;;;12.71;91.72;97040.84;5021500;28;20226;-72
2021/10/07 04:16:29;;;;;;;6.40;3.77;;;;;;;12.69;92.31;97045.50;5026809;28;20228;-72
2021/10/07 04:18:56;;;;;;;7.07;4.30;;;;;;;12.69;92.46;97047.31;5030710;28;20205;-72
2021/10/07 04:21:24;;;;;;;7.80;3.80;;;;;;;12.71;92.18;97048.78;5027475;28;20212;-72
2021/10/07 04:23:50;;;;;;;7.53;4.20;;;;;;;12.70;91.82;97046.31;5031724;28;20233;-72
2021/10/07 04:26:17;;;;;;;6.93;3.90;;;;;;;12.59;92.29;97044.88;5023070;28;20232;-72
2021/10/07 04:28:44;;;;;;;6.80;3.80;;;;;;;12.87;92.17;97051.41;5028644;28;20235;-72
2021/10/07 04:31:11;;;;;;;9.30;3.97;;;;;;;12.70;91.66;97055.06;5022788;28;20210;-71
2021/10/07 04:33:37;;;;;;;7.60;4.07;;;;;;;12.52;92.25;97057.09;5023894;28;20247;-72
2021/10/07 04:36:04;;;;;;;7.23;4.30;;;;;;;12.57;92.57;97054.78;5023121;28;20225;-72
2021/10/07 04:38:31;;;;;;;8.53;4.60;;;;;;;12.50;92.61;97061.75;5019708;28;20206;-72
2021/10/07 04:40:57;;;;;;;8.43;4.27;;;;;;;12.46;93.22;97063.06;5023245;28;20212;-72
2021/10/07 04:43:23;;;;;;;11.50;4.87;;;;;;;12.51;92.66;97060.75;5024168;28;20237;-72
2021/10/07 04:45:51;;;;;;;7.37;4.20;;;;;;;12.78;92.24;97065.63;5029600;28;20201;-72
2021/10/07 04:48:18;;;;;;;6.77;4.07;;;;;;;12.49;92.72;97068.00;5030060;28;20205;-72
2021/10/07 04:50:44;;;;;;;8.23;4.20;;;;;;;12.64;92.31;97065.50;5027311;28;20202;-72
2021/10/07 04:53:10;;;;;;;7.10;4.27;;;;;;;12.66;92.01;97068.81;5019959;28;20225;-72
2021/10/07 04:55:37;;;;;;;8.23;3.97;;;;;;;12.79;91.55;97075.19;5023328;28;20216;-72
2021/10/07 04:58:04;;;;;;;10.53;4.63;;;;;;;12.68;91.96;97066.78;5026669;28;20201;-72
2021/10/07 05:00:30;;;;;;;9.03;4.60;;;;;;;12.75;91.63;97071.25;5026746;28;20201;-72
2021/10/07 05:02:58;;;;;;;6.60;4.53;;;;;;;12.94;91.47;97068.25;5030316;28;20212;-72
2021/10/07 05:05:24;;;;;;;7.47;4.30;;;;;;;12.84;91.29;97063.13;5021761;28;20229;-72
2021/10/07 05:07:51;;;;;;;8.83;4.60;;;;;;;12.76;91.35;97058.88;5023168;28;20226;-72
2021/10/07 05:10:17;;;;;;;8.80;5.03;;;;;;;12.73;91.72;97075.06;5025905;28;20220;-72
2021/10/07 05:12:44;;;;;;;12.93;5.07;;;;;;;12.78;91.54;97074.38;5032356;28;20201;-72
2021/10/07 05:15:11;;;;;;;7.13;4.33;;;;;;;12.81;91.88;97078.50;5021227;28;20209;-72
2021/10/07 05:17:37;;;;;;;8.73;5.00;;;;;;;12.77;91.44;97074.56;5024213;28;20713;-73
2021/10/07 05:20:07;;;;;;;12.93;4.60;;;;;;;13.08;90.87;97072.81;5027632;28;20212;-73
2021/10/07 05:22:34;;;;;;;11.10;4.73;;;;;;;12.88;91.33;97079.50;5022886;28;20214;-73
2021/10/07 05:25:01;;;;;;;10.47;4.83;;;;;;;12.74;90.95;97077.56;5027933;28;20732;-72
2021/10/07 05:27:28;;;;;;;7.43;4.60;;;;;;;12.73;91.45;97075.06;5026398;28;20202;-72
2021/10/07 05:29:54;;;;;;;6.70;4.23;;;;;;;12.73;91.11;97069.75;5026630;28;20217;-72
2021/10/07 05:32:21;;;;;;;10.40;4.90;;;;;;;12.66;91.02;97069.63;5023727;28;20213;-72
2021/10/07 05:34:47;;;;;;;11.90;4.90;;;;;;;12.54;91.36;97078.09;5027850;28;20229;-72
2021/10/07 05:37:15;;;;;;;11.27;4.97;;;;;;;12.68;91.82;97078.22;5025060;28;20229;-72
2021/10/07 05:39:41;;;;;;;6.23;4.47;;;;;;;12.60;90.39;97075.59;5025456;28;20209;-72
2021/10/07 05:42:08;;;;;;;11.60;4.83;;;;;;;12.51;90.42;97076.63;5029988;28;20205;-73
2021/10/07 05:44:35;;;;;;;7.50;4.43;;;;;;;12.53;89.84;97079.91;5025969;28;20903;-74
2021/10/07 05:47:01;;;;;;;8.10;4.73;;;;;;;12.46;89.71;97084.22;5027746;28;20590;-74
2021/10/07 05:49:28;;;;;;;9.40;4.90;;;;;;;12.30;90.85;97084.22;5020199;28;20223;-72
2021/10/07 05:51:54;;;;;;;8.83;4.47;;;;;;;12.27;89.95;97083.72;5028425;28;20214;-74
2021/10/07 05:54:22;;;;;;;7.40;4.33;;;;;;;12.26;89.65;97087.38;5021962;28;20225;-73
2021/10/07 05:56:49;;;;;;;7.63;4.27;;;;;;;12.08;90.22;97091.19;5031466;28;20709;-74
2021/10/07 05:59:16;;;;;;;8.27;4.67;;;;;;;12.22;89.12;97078.16;5029511;28;20213;-72
2021/10/07 06:01:43;;;;;;;9.30;5.00;;;;;;;12.31;89.57;97083.25;5028874;28;20201;-73
2021/10/07 06:04:09;;;;;;;7.40;4.80;;;;;;;12.37;89.87;97084.38;5023287;28;20238;-74
2021/10/07 06:06:36;;;;;;;8.20;4.83;;;;;;;12.21;90.89;97081.78;5031565;28;20202;-74
2021/10/07 06:09:03;;;;;;;6.63;4.17;;;;;;;12.26;90.12;97082.91;5025827;28;20209;-74
2021/10/07 06:11:31;;;;;;;9.83;4.13;;;;;;;12.42;89.52;97085.56;5032613;28;20651;-74
2021/10/07 06:13:58;;;;;;;9.37;4.27;;;;;;;12.13;89.58;97087.06;5028397;28;20222;-72
2021/10/07 06:16:24;;;;;;;7.13;4.13;;;;;;;12.00;90.08;97092.00;5022346;28;20233;-72
2021/10/07 06:18:51;;;;;;;9.80;4.70;;;;;;;12.14;90.43;97087.88;5023315;28;20205;-72
2021/10/07 06:21:17;;;;;;;9.53;5.13;;;;;;;12.16;90.89;97100.75;5023597;28;20205;-72
2021/10/07 06:23:44;;;;;;;8.60;4.97;;;;;;;12.25;90.72;97099.75;5022385;28;20226;-72
2021/10/07 06:26:11;;;;;;;13.30;5.27;;;;;;;12.37;91.23;97106.38;5020460;28;20766;-72
2021/10/07 06:28:39;;;;;;;8.57;4.53;;;;;;;12.48;91.97;97110.50;5021906;28;20225;-72
2021/10/07 06:31:05;;;;;;;11.33;5.23;;;;;;;12.28;93.09;97123.22;5027896;28;20233;-72
2021/10/07 06:33:32;;;;;;;8.10;5.03;;;;;;;12.43;92.95;97118.09;5021309;28;20229;-71
2021/10/07 06:35:58;;;;;;;12.83;5.90;;;;;;;12.53;92.47;97111.63;5025968;28;20218;-72
2021/10/07 06:38:25;;;;;;;10.30;6.00;;;;;;;12.65;92.23;97114.75;5029082;28;20198;-72
2021/10/07 06:40:52;;;;;;;14.20;6.40;;;;;;;12.59;92.73;97116.25;5030462;28;20217;-72
2021/10/07 06:43:18;;;;;;;13.07;6.30;;;;;;;12.71;92.10;97119.38;5023496;28;20233;-72
2021/10/07 06:45:46;;;;;;;14.37;6.33;;;;;;;12.88;90.97;97112.09;5025236;28;20375;-72
2021/10/07 06:48:12;;;;;;;11.37;6.07;;;;;;;12.72;91.37;97121.84;5019214;28;20202;-72
2021/10/07 06:50:41;;;;;;;12.87;6.80;;;;;;;12.73;90.76;97120.84;5030408;28;20210;-72
2021/10/07 06:53:08;;;;;;;13.57;6.77;;;;;;;12.85;90.43;97122.13;5021273;28;20597;-72
2021/10/07 06:55:34;;;;;;;15.27;7.10;;;;;;;12.92;91.40;97128.44;5026340;28;20678;-72
2021/10/07 06:58:01;;;;;;;11.03;6.43;;;;;;;13.00;91.78;97125.78;5019572;28;20272;-72
2021/10/07 07:00:27;;;;;;;12.37;6.37;;;;;;;12.91;92.28;97126.78;5024924;28;20206;-72
2021/10/07 07:02:58;;;;;;;10.90;6.27;;;;;;;13.13;91.78;97131.34;5026312;28;20209;-72
2021/10/07 07:05:25;;;;;;;15.00;6.90;;;;;;;12.87;90.65;97133.41;5018599;28;20205;-72
2021/10/07 07:07:51;;;;;;;13.43;6.47;;;;;;;12.96;90.25;97125.28;5018908;28;20201;-72
2021/10/07 07:10:18;;;;;;;11.20;6.90;;;;;;;13.01;90.20;97135.38;5019590;28;21047;-72
2021/10/07 07:12:45;;;;;;;13.67;7.67;;;;;;;13.11;90.22;97130.69;5019333;28;20690;-72
2021/10/07 07:15:11;;;;;;;14.57;6.83;;;;;;;13.14;89.96;97135.66;5029788;28;20209;-72
2021/10/07 07:17:38;;;;;;;15.37;7.37;;;;;;;13.22;89.79;97132.97;5020021;28;20232;-72
2021/10/07 07:20:08;;;;;;;15.27;7.67;;;;;;;13.35;90.12;97142.00;5022506;28;20201;-72
2021/10/07 07:22:34;;;;;;;15.57;7.93;;;;;;;13.10;89.30;97131.69;5030815;28;20217;-72
2021/10/07 07:25:01;;;;;;;14.50;8.13;;;;;;;13.21;90.09;97139.25;5025041;28;20225;-72
2021/10/07 07:27:27;;;;;;;18.33;8.17;;;;;;;13.26;89.50;97135.09;5022833;28;20194;-72
2021/10/07 07:29:54;;;;;;;12.80;7.53;;;;;;;13.43;89.06;97140.16;5028860;28;20205;-72
2021/10/07 07:32:20;;;;;;;13.27;8.10;;;;;;;13.36;89.42;97150.78;5025702;28;20205;-72
2021/10/07 07:34:47;;;;;;;14.90;8.60;;;;;;;13.49;89.32;97158.00;5021659;28;20229;-72
2021/10/07 07:37:15;;;;;;;18.33;9.80;;;;;;;14.00;86.53;97154.72;5015498;28;20312;-72
2021/10/07 07:39:41;;;;;;;18.97;9.50;;;;;;;14.05;86.98;97168.25;5019076;28;20292;-72
2021/10/07 07:42:08;;;;;;;16.67;9.30;;;;;;;14.19;85.84;97163.06;5018266;28;20213;-72
2021/10/07 07:44:35;;;;;;;16.37;9.23;;;;;;;13.74;86.52;97164.00;5018232;28;20612;-72
2021/10/07 07:47:02;;;;;;;16.63;8.57;;;;;;;13.79;85.68;97166.94;5021794;28;20237;-72
2021/10/07 07:49:29;;;;;;;14.48;8.93;;;;;;;13.77;85.84;97164.47;5019577;28;20202;-72
2021/10/07 07:51:55;;;;;;;20.43;8.43;;;;;;;13.70;86.12;97158.22;5018129;28;20217;-72
2021/10/07 07:54:23;;;;;;;17.27;9.23;;;;;;;13.95;87.60;97173.00;5018156;28;20685;-72
2021/10/07 07:56:49;;;;;;;15.85;8.50;;;;;;;13.99;85.88;97180.41;5019940;28;20607;-72
2021/10/07 07:59:16;;;;;;;14.90;8.65;;;;;;;13.97;86.07;97176.28;5024570;28;20201;-72
2021/10/07 08:01:43;;;;;;;16.00;8.93;;;;;;;13.69;85.85;97172.44;5023299;28;20812;-72
2021/10/07 08:04:10;;;;;;;13.05;8.07;;;;;;;13.95;85.22;97175.63;5018620;28;20500;-72
2021/10/07 08:06:37;;;;;;;16.07;8.87;;;;;;;14.36;85.22;97183.16;5017386;28;20198;-72
2021/10/07 08:09:06;;;;;;;14.70;8.60;;;;;;;14.34;85.43;97179.03;5028957;28;20489;-72
2021/10/07 08:11:37;;;;;;;13.93;8.73;;;;;;;14.38;87.17;97177.69;5018706;28;20489;-72
2021/10/07 08:14:03;;;;;;;20.63;9.57;;;;;;;14.19;85.24;97180.78;5020636;28;20229;-72
2021/10/07 08:16:31;;;;;;;14.63;8.55;;;;;;;14.25;85.04;97178.25;5018400;28;20202;-72
2021/10/07 08:18:58;;;;;;;13.07;8.17;;;;;;;14.15;84.15;97179.50;5022127;28;20233;-72
2021/10/07 08:21:25;;;;;;;15.57;8.70;;;;;;;14.20;84.29;97185.91;5024969;28;20209;-72
2021/10/07 08:23:53;;;;;;;15.33;8.93;;;;;;;14.20;86.17;97177.97;5025803;28;20472;-72
2021/10/07 08:26:19;;;;;;;16.55;8.57;;;;;;;14.31;85.60;97179.41;5018183;28;20491;-72
2021/10/07 08:28:47;;;;;;;19.63;8.60;;;;;;;14.19;84.54;97183.44;5034688;28;20208;-72
2021/10/07 08:31:14;;;;;;;16.10;8.33;;;;;;;14.04;85.44;97188.66;5033847;28;20444;-72
2021/10/07 08:33:41;;;;;;;14.98;8.40;;;;;;;14.42;84.79;97187.75;5019353;28;20452;-72
2021/10/07 08:36:08;;;;;;;16.15;8.60;;;;;;;14.54;85.06;97196.13;5017674;28;20666;-72
2021/10/07 08:38:34;;;;;;;15.95;8.57;;;;;;;14.33;84.37;97198.59;5017137;28;20221;-74
2021/10/07 08:41:01;;;;;;;16.02;8.23;;;;;;;13.99;84.51;97198.94;5020732;28;20202;-74
2021/10/07 08:43:28;;;;;;;14.85;8.32;;;;;;;14.10;84.92;97203.06;5018356;28;20602;-74
2021/10/07 08:45:56;;;;;;;17.05;8.27;;;;;;;13.94;85.49;97202.28;5016766;28;20205;-72
2021/10/07 08:48:22;;;;;;;13.77;8.20;;;;;;;13.77;85.60;97212.16;5020060;28;20576;-72
2021/10/07 08:50:49;;;;;;;13.40;8.35;;;;;;;13.83;85.62;97211.44;5022778;28;20202;-72
2021/10/07 08:53:15;;;;;;;11.98;8.35;;;;;;;13.68;86.11;97210.56;5017179;28;20225;-72
2021/10/07 08:55:42;;;;;;;15.25;8.18;;;;;;;13.76;86.24;97215.81;5022601;28;20202;-72
2021/10/07 08:58:11;;;;;;;13.10;8.13;;;;;;;13.76;86.88;97205.22;5015829;28;20514;-72
2021/10/07 09:00:37;;;;;;;18.75;8.23;;;;;;;13.97;85.89;97208.06;5016809;28;20340;-72
2021/10/07 09:03:19;;;;;;;10.97;7.67;;;;;;;14.49;84.33;97206.44;5023814;28;20241;-72
2021/10/07 09:05:45;;;;;;;15.27;8.02;;;;;;;14.35;84.75;97205.38;5016534;28;20595;-72
2021/10/07 09:08:14;;;;;;;14.73;7.47;;;;;;;14.21;85.23;97206.13;5017190;28;20213;-72
2021/10/07 09:10:45;;;;;;;10.93;7.03;;;;;;;14.41;84.40;97211.78;5018994;28;20213;-72
2021/10/07 09:13:15;;;;;;;11.30;7.00;;;;;;;14.34;85.66;97206.38;5016905;28;20410;-72
2021/10/07 09:15:47;;;;;;;17.67;7.60;;;;;;;14.84;83.16;97211.94;5017114;28;20746;-72
2021/10/07 09:18:14;;;;;;;11.88;7.00;;;;;;;14.73;82.95;97209.72;5020379;28;20563;-72
2021/10/07 09:20:44;;;;;;;13.57;7.03;;;;;;;14.87;82.91;97215.06;5018984;28;20206;-72
2021/10/07 09:23:14;;;;;;;12.20;7.32;;;;;;;15.02;81.34;97213.25;5028035;28;20228;-72
2021/10/07 09:25:57;;;;;;;10.75;6.95;;;;;;;15.09;81.22;97208.06;5028558;28;20216;-72
2021/10/07 09:28:25;;;;;;;12.52;6.45;;;;;;;14.67;81.79;97205.94;5020535;28;20256;-72
2021/10/07 09:30:57;;;;;;;12.65;6.32;;;;;;;14.94;79.88;97204.53;5016543;28;20241;-72
2021/10/07 09:33:28;;;;;;;9.10;6.10;;;;;;;14.98;80.41;97198.72;5016668;28;20233;-72
2021/10/07 09:36:17;;;;;;;7.72;5.47;;;;;;;15.22;78.98;97201.13;5026180;28;20283;-72
2021/10/07 09:38:46;;;;;;;8.75;5.60;;;;;;;15.00;79.95;97196.69;5015856;28;20713;-72
2021/10/07 09:41:14;;;;;;;9.45;5.55;;;;;;;14.92;80.16;97196.75;5023594;28;20213;-72
2021/10/07 09:43:42;;;;;;;8.85;5.47;;;;;;;15.09;79.70;97195.59;5019773;28;20240;-72
2021/10/07 09:46:09;;;;;;;7.70;5.50;;;;;;;14.56;80.41;97196.75;5021564;28;20688;-72
2021/10/07 09:48:39;;;;;;;9.75;5.57;;;;;;;14.99;78.72;97192.38;5016970;28;20202;-72
2021/10/07 09:51:13;;;;;;;8.73;5.43;;;;;;;15.08;79.27;97191.28;5021720;28;20263;-72
2021/10/07 09:53:43;;;;;;;7.57;5.20;;;;;;;14.82;79.93;97185.56;5017012;28;20309;-72
2021/10/07 09:56:25;;;;;;;9.57;5.32;;;;;;;15.09;78.50;97184.97;5022747;28;20250;-72
2021/10/07 09:58:51;;;;;;;10.18;5.47;;;;;;;14.54;81.01;97190.81;5017570;28;20386;-72
2021/10/07 10:01:18;;;;;;;8.93;5.80;;;;;;;15.05;79.46;97183.69;5017393;28;20210;-72
2021/10/07 10:03:45;;;;;;;9.25;5.80;;;;;;;15.37;77.61;97180.72;5015750;28;21485;-72
2021/10/07 10:06:12;;;;;;;11.90;6.05;;;;;;;15.49;78.92;97184.53;5025173;28;20877;-72
2021/10/07 10:08:39;;;;;;;9.90;4.35;;;;;;;15.27;78.73;97185.47;5027828;28;20973;-72
2021/10/07 10:11:06;;;;;;;6.35;4.22;;;;;;;15.40;77.17;97177.69;5015992;28;20205;-72
2021/10/07 10:13:34;;;;;;;7.32;4.30;;;;;;;15.40;76.02;97186.50;5016778;28;20587;-72
2021/10/07 10:16:00;;;;;;;6.93;3.78;;;;;;;15.62;74.33;97184.75;5015200;28;20418;-72
2021/10/07 10:18:28;;;;;;;7.20;4.38;;;;;;;15.37;78.71;97189.50;5022550;28;20233;-72
2021/10/07 10:20:55;;;;;;;2.83;2.53;;;;;;;15.44;73.72;97182.47;5019828;28;20213;-72
2021/10/07 10:23:24;;;;;;;4.15;2.30;;;;;;;15.29;72.71;97183.47;5023435;28;20228;-72
2021/10/07 10:25:54;;;;;;;3.47;2.40;;;;;;;15.52;73.22;97184.19;5022630;28;20235;-72
2021/10/07 10:28:31;;;;;;;4.70;2.53;;;;;;;15.79;72.82;97183.53;5020715;28;20642;-72
2021/10/07 10:31:03;;;;;;;3.85;2.58;;;;;;;15.99;71.90;97178.25;5019909;28;20677;-72
2021/10/07 10:33:32;;;;;;;6.68;3.63;;;;;;;15.70;72.25;97182.78;5017256;28;20713;-72
2021/10/07 10:35:59;;;;;;;6.88;4.30;;;;;;;15.38;73.22;97193.00;5019867;28;20216;-72
2021/10/07 10:38:28;;;;;;;7.15;4.68;;;;;;;15.53;72.73;97189.31;5020184;28;20225;-72
2021/10/07 10:40:55;;;;;;;6.30;4.75;;;;;;;15.44;73.40;97189.59;5023414;28;20361;-72
2021/10/07 10:43:36;;;;;;;7.63;5.50;;;;;;;15.63;74.10;97197.00;5025183;28;20224;-72
2021/10/07 10:46:18;;;;;;;8.32;5.75;;;;;;;15.28;75.00;97189.78;5026952;28;20228;-72
2021/10/07 10:49:03;;;;;;;7.88;4.95;;;;;;;15.33;73.87;97192.72;5022284;28;20224;-72
2021/10/07 10:51:34;;;;;;;7.50;5.00;;;;;;;15.21;75.46;97196.84;5031656;28;20210;-72
2021/10/07 10:54:04;;;;;;;10.70;5.13;;;;;;;15.30;74.93;97193.09;5025471;28;20221;-72
2021/10/07 10:56:33;;;;;;;7.07;4.10;;;;;;;15.07;72.92;97205.59;5019733;28;20209;-72
2021/10/07 10:59:21;;;;;;;6.85;4.22;;;;;;;15.81;73.42;97189.47;5019452;28;20502;-72
2021/10/07 11:02:22;;;;;;;8.65;4.63;;;;;;;15.64;73.63;97193.34;5019167;28;20267;-72
2021/10/07 11:04:50;;;;;;;9.05;4.85;;;;;;;15.20;74.02;97200.47;5026498;28;20508;-72
2021/10/07 11:07:17;;;;;;;8.25;5.10;;;;;;;15.16;74.44;97198.34;5022849;28;20214;-72
2021/10/07 11:09:59;;;;;;;8.68;5.15;;;;;;;15.36;76.00;97201.16;5024421;28;20229;-72
2021/10/07 11:12:26;;;;;;;10.18;5.93;;;;;;;15.47;75.36;97191.91;5023635;28;20197;-72
2021/10/07 11:14:56;;;;;;;9.52;5.22;;;;;;;15.49;74.37;97195.16;5031469;28;20237;-72
2021/10/07 11:17:25;;;;;;;7.25;5.07;;;;;;;15.28;74.67;97192.44;5022821;28;20205;-72
2021/10/07 11:19:51;;;;;;;8.60;4.95;;;;;;;15.14;74.21;97200.38;5023547;28;20578;-72
2021/10/07 11:22:18;;;;;;;7.50;4.90;;;;;;;15.41;74.18;97188.16;5021633;28;20213;-74
2021/10/07 11:24:48;;;;;;;7.35;4.82;;;;;;;15.82;73.65;97186.59;5026720;28;20514;-72
2021/10/07 11:27:16;;;;;;;11.40;5.30;;;;;;;15.76;75.19;97189.19;5021770;28;20731;-72
2021/10/07 11:29:50;;;;;;;6.13;4.28;;;;;;;15.97;75.31;97180.28;5026513;28;20206;-72
2021/10/07 11:32:19;;;;;;;7.43;4.35;;;;;;;16.24;73.33;97182.22;5020019;28;20673;-72
2021/10/07 11:34:58;;;;;;;9.05;4.90;;;;;;;16.48;71.68;97181.84;5024137;28;20225;-72
2021/10/07 11:37:24;;;;;;;10.27;4.90;;;;;;;16.03;76.03;97176.84;5018071;28;20244;-72